createdAt,value
2022-10-05T00:01:39.843Z,101962.42
2022-10-05T00:04:20.818Z,101966.05
2022-10-05T00:07:09.833Z,101966.20
2022-10-05T00:09:38.828Z,101964.09
2022-10-05T00:12:19.703Z,101964.24
2022-10-05T00:14:51.221Z,101963.52
2022-10-05T00:17:25.534Z,101966.45
2022-10-05T00:19:54.978Z,101967.45
2022-10-05T00:22:30.315Z,101967.25
2022-10-05T00:25:01.405Z,101966.69
2022-10-05T00:27:37.867Z,101965.60
2022-10-05T00:30:21.123Z,101969.05
2022-10-05T00:32:50.663Z,101972.49
2022-10-05T00:35:20.551Z,101971.95
2022-10-05T00:37:55.232Z,101979.59
2022-10-05T00:40:35.695Z,101984.45
2022-10-05T00:43:10.191Z,101990.52
2022-10-05T00:45:46.635Z,101995.02
2022-10-05T00:48:33.371Z,101995.70
2022-10-05T00:51:13.635Z,101999.67
2022-10-05T00:53:51.224Z,102002.07
2022-10-05T00:56:38.135Z,102008.86
2022-10-05T00:59:25.970Z,102013.38
2022-10-05T01:02:07.357Z,102020.00
2022-10-05T01:04:37.413Z,102025.05
2022-10-05T01:07:44.359Z,102030.94
2022-10-05T01:10:33.222Z,102031.28
2022-10-05T01:13:01.802Z,102035.27
2022-10-05T01:15:56.212Z,102036.48
2022-10-05T01:18:26.833Z,102040.29
2022-10-05T01:21:07.082Z,102045.34
2022-10-05T01:23:57.475Z,102050.22
2022-10-05T01:26:57.003Z,102048.30
2022-10-05T01:29:33.964Z,102051.23
2022-10-05T01:32:26.407Z,102049.67
2022-10-05T01:35:16.499Z,102046.02
2022-10-05T01:38:02.899Z,102046.20
2022-10-05T01:41:09.991Z,102041.52
2022-10-05T01:43:42.462Z,102046.58
2022-10-05T01:46:24.773Z,102048.68
2022-10-05T01:48:56.241Z,102049.23
2022-10-05T01:51:43.132Z,102051.31
2022-10-05T01:54:30.967Z,102054.30
2022-10-05T01:57:16.962Z,102060.41
2022-10-05T02:00:04.182Z,102064.95
2022-10-05T02:03:10.868Z,102066.36
2022-10-05T02:05:44.259Z,102072.33
2022-10-05T02:08:24.220Z,102073.21
2022-10-05T02:11:03.858Z,102076.70
2022-10-05T02:13:44.621Z,102080.04
2022-10-05T02:16:18.297Z,102080.05
2022-10-05T02:19:02.987Z,102079.17
2022-10-05T02:21:34.819Z,102079.51
2022-10-05T02:24:11.373Z,102080.36
2022-10-05T02:26:42.020Z,102081.55
2022-10-05T02:29:15.752Z,102087.29
2022-10-05T02:32:14.757Z,102093.71
2022-10-05T02:34:44.568Z,102094.03
2022-10-05T02:37:50.846Z,102101.15
2022-10-05T02:40:26.747Z,102105.83
2022-10-05T02:43:13.805Z,102110.33
2022-10-05T02:46:22.310Z,102114.63
2022-10-05T02:49:20.814Z,102114.58
2022-10-05T02:52:10.693Z,102115.73
2022-10-05T02:54:57.403Z,102116.75
2022-10-05T02:57:31.417Z,102121.42
2022-10-05T03:00:05.019Z,102123.13
2022-10-05T03:03:07.704Z,102126.56
2022-10-05T03:05:55.945Z,102127.90
2022-10-05T03:08:40.918Z,102132.73
2022-10-05T03:11:22.925Z,102137.73
2022-10-05T03:13:57.303Z,102142.05
2022-10-05T03:16:47.323Z,102142.88
2022-10-05T03:19:54.611Z,102147.89
2022-10-05T03:23:02.441Z,102152.90
2022-10-05T03:25:33.151Z,102154.60
2022-10-05T03:28:22.582Z,102156.13
2022-10-05T03:31:17.684Z,102157.30
2022-10-05T03:33:54.352Z,102166.17
2022-10-05T03:36:43.471Z,102170.51
2022-10-05T03:39:28.398Z,102179.02
2022-10-05T03:42:05.622Z,102182.29
2022-10-05T03:44:41.477Z,102185.22
2022-10-05T03:47:22.761Z,102190.42
2022-10-05T03:50:22.273Z,102191.24
2022-10-05T03:53:07.849Z,102190.84
2022-10-05T03:55:44.626Z,102191.14
2022-10-05T03:58:33.383Z,102196.13
2022-10-05T04:01:11.663Z,102202.02
2022-10-05T04:03:50.523Z,102203.89
2022-10-05T04:06:31.007Z,102205.30
2022-10-05T04:09:06.256Z,102208.79
2022-10-05T04:11:47.097Z,102208.83
2022-10-05T04:14:51.213Z,102211.30
2022-10-05T04:17:44.727Z,102215.39
2022-10-05T04:20:34.050Z,102215.98
2022-10-05T04:23:19.751Z,102219.02
2022-10-05T04:25:57.827Z,102219.45
2022-10-05T04:28:59.401Z,102218.33
2022-10-05T04:31:46.672Z,102221.75
2022-10-05T04:34:27.906Z,102224.10
2022-10-05T04:37:04.171Z,102228.33
2022-10-05T04:39:47.161Z,102227.82
2022-10-05T04:42:29.909Z,102234.82
2022-10-05T04:45:43.855Z,102238.52
2022-10-05T04:48:15.612Z,102239.98
2022-10-05T04:51:03.358Z,102245.06
2022-10-05T04:53:41.050Z,102250.12
2022-10-05T04:56:18.973Z,102253.45
2022-10-05T04:58:57.160Z,102257.66
2022-10-05T05:01:44.298Z,102258.78
2022-10-05T05:04:21.047Z,102263.26
2022-10-05T05:07:08.818Z,102263.21
2022-10-05T05:10:01.990Z,102266.67
2022-10-05T05:12:42.663Z,102272.38
2022-10-05T05:15:42.265Z,102277.58
2022-10-05T05:18:26.171Z,102282.27
2022-10-05T05:21:40.581Z,102283.13
2022-10-05T05:24:21.255Z,102278.27
2022-10-05T05:26:59.043Z,102279.84
2022-10-05T05:29:49.086Z,102284.88
2022-10-05T05:32:53.055Z,102286.98
2022-10-05T05:35:40.095Z,102290.71
2022-10-05T05:38:28.806Z,102291.80
2022-10-05T05:41:00.584Z,102293.59
2022-10-05T05:43:38.433Z,102291.90
2022-10-05T05:46:16.393Z,102292.73
2022-10-05T05:48:47.791Z,102293.83
2022-10-05T05:51:33.362Z,102299.58
2022-10-05T05:54:25.402Z,102304.42
2022-10-05T05:57:17.944Z,102308.57
2022-10-05T06:00:06.208Z,102313.58
2022-10-05T06:03:14.495Z,102316.66
2022-10-05T06:06:17.498Z,102318.33
2022-10-05T06:09:03.796Z,102322.83
2022-10-05T06:11:52.561Z,102322.92
2022-10-05T06:14:53.499Z,102324.56
2022-10-05T06:17:22.298Z,102326.58
2022-10-05T06:19:55.750Z,102329.63
2022-10-05T06:22:42.175Z,102334.25
2022-10-05T06:25:13.947Z,102335.35
2022-10-05T06:28:04.296Z,102333.45
2022-10-05T06:31:13.547Z,102332.11
2022-10-05T06:33:55.233Z,102332.18
2022-10-05T06:36:53.757Z,102339.60
2022-10-05T06:40:00.766Z,102342.11
2022-10-05T06:42:52.676Z,102347.77
2022-10-05T06:46:03.309Z,102350.10
2022-10-05T06:48:56.400Z,102348.42
2022-10-05T06:51:56.115Z,102344.27
2022-10-05T06:54:43.655Z,102336.41
2022-10-05T06:57:36.813Z,102341.17
2022-10-05T07:00:27.653Z,102336.16
2022-10-05T07:03:15.449Z,102337.96
2022-10-05T07:05:53.247Z,102339.57
2022-10-05T07:08:31.352Z,102342.06
2022-10-05T07:11:31.482Z,102342.10
2022-10-05T07:14:09.992Z,102339.84
2022-10-05T07:16:45.734Z,102340.39
2022-10-05T07:20:06.664Z,102344.27
2022-10-05T07:23:14.157Z,102342.89
2022-10-05T07:26:09.979Z,102344.66
2022-10-05T07:28:47.675Z,102339.94
2022-10-05T07:31:16.720Z,102340.64
2022-10-05T07:33:53.650Z,102339.60
2022-10-05T07:37:06.571Z,102340.84
2022-10-05T07:39:59.000Z,102341.89
2022-10-05T07:42:48.778Z,102345.23
2022-10-05T07:45:49.699Z,102349.30
2022-10-05T07:48:27.041Z,102353.69
2022-10-05T07:51:08.105Z,102353.35
2022-10-05T07:53:41.706Z,102354.58
2022-10-05T07:56:41.073Z,102355.82
2022-10-05T07:59:33.350Z,102360.90
2022-10-05T08:02:23.272Z,102364.06
2022-10-05T08:05:06.363Z,102367.75
2022-10-05T08:07:36.989Z,102366.35
2022-10-05T08:10:39.273Z,102367.75
2022-10-05T08:13:19.937Z,102370.02
2022-10-05T08:15:56.440Z,102369.50
2022-10-05T08:18:37.685Z,102366.51
2022-10-05T08:21:12.198Z,102368.95
2022-10-05T08:24:27.490Z,102369.84
2022-10-05T08:27:32.937Z,102372.45
2022-10-05T08:30:14.070Z,102374.73
2022-10-05T08:32:55.507Z,102380.34
2022-10-05T08:35:39.153Z,102379.45
2022-10-05T08:38:20.225Z,102381.36
2022-10-05T08:40:48.698Z,102379.41
2022-10-05T08:43:41.962Z,102382.05
2022-10-05T08:46:41.447Z,102377.43
2022-10-05T08:49:42.413Z,102373.35
2022-10-05T08:52:17.140Z,102377.77
2022-10-05T08:55:07.638Z,102378.61
2022-10-05T08:58:04.278Z,102375.02
2022-10-05T09:00:58.462Z,102370.02
2022-10-05T09:03:36.161Z,102369.92
2022-10-05T09:06:46.634Z,102374.25
2022-10-05T09:09:52.692Z,102379.58
2022-10-05T09:12:33.256Z,102374.19
2022-10-05T09:15:31.782Z,102372.52
2022-10-05T09:18:12.102Z,102364.86
2022-10-05T09:20:52.261Z,102365.29
2022-10-05T09:23:40.609Z,102365.48
2022-10-05T09:26:44.927Z,102362.73
2022-10-05T09:29:38.086Z,102359.40
2022-10-05T09:32:34.630Z,102354.81
2022-10-05T09:35:39.091Z,102352.98
2022-10-05T09:38:13.676Z,102347.31
2022-10-05T09:41:32.037Z,102350.64
2022-10-05T09:44:34.731Z,102345.96
2022-10-05T09:47:33.510Z,102341.09
2022-10-05T09:50:14.379Z,102339.27
2022-10-05T09:53:05.900Z,102336.50
2022-10-05T09:56:06.638Z,102336.94
2022-10-05T09:58:50.376Z,102334.48
2022-10-05T10:01:34.104Z,102333.66
2022-10-05T10:04:25.057Z,102337.99
2022-10-05T10:06:53.607Z,102335.43
2022-10-05T10:09:38.834Z,102337.10
2022-10-05T10:12:19.960Z,102333.13
2022-10-05T10:15:02.497Z,102326.23
2022-10-05T10:17:51.639Z,102322.91
2022-10-05T10:21:09.590Z,102322.42
2022-10-05T10:24:11.270Z,102321.18
2022-10-05T10:26:58.562Z,102310.20
2022-10-05T10:29:33.086Z,102310.00
2022-10-05T10:32:39.153Z,102306.39
2022-10-05T10:35:31.560Z,102305.02
2022-10-05T10:38:32.236Z,102311.02
2022-10-05T10:41:28.461Z,102312.36
2022-10-05T10:44:15.989Z,102314.10
2022-10-05T10:47:35.368Z,102311.31
2022-10-05T10:50:12.503Z,102308.77
2022-10-05T10:53:18.627Z,102313.48
2022-10-05T10:56:12.390Z,102315.42
2022-10-05T10:59:31.691Z,102313.20
2022-10-05T11:02:37.882Z,102313.27
2022-10-05T11:05:35.601Z,102314.23
2022-10-05T11:08:20.357Z,102311.00
2022-10-05T11:11:12.701Z,102306.34
2022-10-05T11:13:44.355Z,102300.95
2022-10-05T11:16:22.052Z,102298.37
2022-10-05T11:19:20.615Z,102292.80
2022-10-05T11:22:00.724Z,102290.23
2022-10-05T11:24:34.585Z,102288.05
2022-10-05T11:27:27.360Z,102284.84
2022-10-05T11:30:06.105Z,102278.40
2022-10-05T11:33:01.538Z,102275.20
2022-10-05T11:36:10.255Z,102271.81
2022-10-05T11:38:55.613Z,102265.97
2022-10-05T11:42:01.772Z,102261.58
2022-10-05T11:44:39.456Z,102260.09
2022-10-05T11:47:32.366Z,102254.67
2022-10-05T11:50:27.188Z,102256.11
2022-10-05T11:53:12.725Z,102261.08
2022-10-05T11:56:00.113Z,102263.69
2022-10-05T11:58:51.868Z,102261.81
2022-10-05T12:01:42.455Z,102260.36
2022-10-05T12:04:43.496Z,102259.52
2022-10-05T12:07:30.810Z,102259.20
2022-10-05T12:10:14.454Z,102258.79
2022-10-05T12:13:15.394Z,102260.77
2022-10-05T12:15:48.492Z,102264.46
2022-10-05T12:18:33.045Z,102264.42
2022-10-05T12:21:42.382Z,102257.20
2022-10-05T12:24:44.667Z,102259.94
2022-10-05T12:27:25.834Z,102261.28
2022-10-05T12:30:04.555Z,102257.97
2022-10-05T12:32:45.279Z,102253.52
2022-10-05T12:35:48.356Z,102251.38
2022-10-05T12:38:28.798Z,102249.22
2022-10-05T12:41:04.637Z,102249.40
2022-10-05T12:43:36.342Z,102242.65
2022-10-05T12:46:31.703Z,102235.73
2022-10-05T12:49:14.832Z,102236.38
2022-10-05T12:51:52.628Z,102235.64
2022-10-05T12:55:00.332Z,102229.27
2022-10-05T12:57:46.941Z,102231.02
2022-10-05T13:00:23.247Z,102229.44
2022-10-05T13:03:08.993Z,102231.41
2022-10-05T13:06:02.650Z,102231.05
2022-10-05T13:08:53.465Z,102232.21
2022-10-05T13:11:27.893Z,102235.28
2022-10-05T13:14:04.567Z,102234.14
2022-10-05T13:16:36.313Z,102233.78
2022-10-05T13:19:17.026Z,102234.53
2022-10-05T13:22:10.248Z,102239.50
2022-10-05T13:24:52.776Z,102242.70
2022-10-05T13:27:28.113Z,102243.31
2022-10-05T13:30:15.635Z,102243.33
2022-10-05T13:32:49.461Z,102244.41
2022-10-05T13:35:36.352Z,102240.55
2022-10-05T13:38:34.631Z,102235.44
2022-10-05T13:41:24.010Z,102233.86
2022-10-05T13:44:01.568Z,102236.17
2022-10-05T13:46:49.389Z,102235.33
2022-10-05T13:49:23.855Z,102229.08
2022-10-05T13:52:09.135Z,102230.05
2022-10-05T13:54:47.040Z,102226.73
2022-10-05T13:58:23.611Z,102229.75
2022-10-05T14:00:59.160Z,102232.96
2022-10-05T14:03:38.301Z,102234.94
2022-10-05T14:06:15.620Z,102232.31
2022-10-05T14:08:51.536Z,102236.90
2022-10-05T14:11:47.871Z,102230.92
2022-10-05T14:14:29.769Z,102226.36
2022-10-05T14:19:33.900Z,102231.20
2022-10-05T14:22:12.415Z,102232.13
2022-10-05T14:24:51.653Z,102232.88
2022-10-05T14:27:33.405Z,102229.20
2022-10-05T14:30:18.630Z,102226.77
2022-10-05T14:33:07.080Z,102227.72
2022-10-05T14:35:50.948Z,102226.55
2022-10-05T14:38:30.250Z,102226.38
2022-10-05T14:41:10.829Z,102223.79
2022-10-05T14:43:51.170Z,102221.17
2022-10-05T14:46:23.408Z,102224.73
2022-10-05T14:49:21.942Z,102225.65
2022-10-05T14:51:51.948Z,102229.02
2022-10-05T14:54:54.182Z,102231.52
2022-10-05T14:57:59.157Z,102233.67
2022-10-05T15:00:35.419Z,102236.00
2022-10-05T15:03:32.275Z,102239.36
2022-10-05T15:06:02.562Z,102236.20
2022-10-05T15:08:49.305Z,102237.27
2022-10-05T15:11:44.510Z,102236.77
2022-10-05T15:14:25.381Z,102234.66
2022-10-05T15:16:59.201Z,102237.16
2022-10-05T15:19:53.064Z,102240.89
2022-10-05T15:22:49.294Z,102243.89
2022-10-05T15:25:27.416Z,102244.09
2022-10-05T15:28:05.026Z,102249.42
2022-10-05T15:30:39.623Z,102249.45
2022-10-05T15:33:25.616Z,102251.77
2022-10-05T15:36:14.935Z,102249.16
2022-10-05T15:38:58.146Z,102256.42
2022-10-05T15:41:41.851Z,102259.98
2022-10-05T15:44:20.267Z,102266.18
2022-10-05T15:46:57.248Z,102272.02
2022-10-05T15:49:38.326Z,102276.45
2022-10-05T15:52:18.114Z,102277.20
2022-10-05T15:55:09.699Z,102277.23
2022-10-05T15:57:41.965Z,102280.79
2022-10-05T16:00:14.340Z,102288.92
2022-10-05T16:03:12.209Z,102290.17
2022-10-05T16:06:26.054Z,102293.73
2022-10-05T16:09:32.959Z,102298.17
2022-10-05T16:12:32.753Z,102302.95
2022-10-05T16:15:26.895Z,102306.85
2022-10-05T16:18:34.332Z,102316.37
2022-10-05T16:21:19.916Z,102313.93
2022-10-05T16:23:54.903Z,102317.82
2022-10-05T16:26:50.160Z,102320.65
2022-10-05T16:29:54.075Z,102323.31
2022-10-05T16:32:30.505Z,102322.09
2022-10-05T16:35:17.966Z,102325.77
2022-10-05T16:37:59.760Z,102327.20
2022-10-05T16:40:46.676Z,102327.56
2022-10-05T16:43:18.333Z,102332.15
2022-10-05T16:45:52.163Z,102333.75
2022-10-05T16:48:32.714Z,102335.52
2022-10-05T16:51:04.475Z,102338.69
2022-10-05T16:53:36.935Z,102342.58
2022-10-05T16:56:11.925Z,102343.81
2022-10-05T16:58:46.589Z,102347.70
2022-10-05T17:01:46.767Z,102348.58
2022-10-05T17:04:49.608Z,102355.27
2022-10-05T17:07:27.352Z,102351.92
2022-10-05T17:09:59.639Z,102349.13
2022-10-05T17:12:43.421Z,102347.20
2022-10-05T17:15:33.748Z,102349.49
2022-10-05T17:19:01.181Z,102352.30
2022-10-05T17:21:44.774Z,102345.80
2022-10-05T17:24:22.207Z,102347.02
2022-10-05T17:27:21.619Z,102351.23
2022-10-05T17:29:53.366Z,102355.29
2022-10-05T17:32:39.850Z,102353.53
2022-10-05T17:35:20.803Z,102352.30
2022-10-05T17:38:14.506Z,102348.79
2022-10-05T17:41:22.077Z,102348.26
2022-10-05T17:44:24.749Z,102346.34
2022-10-05T17:46:56.404Z,102348.27
2022-10-05T17:49:47.309Z,102342.11
2022-10-05T17:52:45.340Z,102343.16
2022-10-05T17:55:42.597Z,102347.38
2022-10-05T17:58:29.887Z,102348.77
2022-10-05T18:00:58.732Z,102352.48
2022-10-05T18:03:40.277Z,102352.30
2022-10-05T18:06:48.419Z,102350.02
2022-10-05T18:09:23.397Z,102351.95
2022-10-05T18:12:16.811Z,102354.23
2022-10-05T18:15:05.979Z,102351.60
2022-10-05T18:17:56.373Z,102349.67
2022-10-05T18:20:26.765Z,102351.60
2022-10-05T18:23:24.499Z,102353.00
2022-10-05T18:26:04.095Z,102358.45
2022-10-05T18:28:57.067Z,102362.30
2022-10-05T18:32:01.600Z,102361.96
2022-10-05T18:34:44.322Z,102360.02
2022-10-05T18:37:48.335Z,102360.55
2022-10-05T18:40:59.624Z,102364.05
2022-10-05T18:43:34.925Z,102366.14
2022-10-05T18:46:22.392Z,102364.89
2022-10-05T18:49:12.788Z,102367.53
2022-10-05T18:52:05.830Z,102367.70
2022-10-05T18:55:06.857Z,102371.21
2022-10-05T18:58:00.040Z,102370.50
2022-10-05T19:01:00.777Z,102369.98
2022-10-05T19:03:49.433Z,102371.90
2022-10-05T19:06:56.681Z,102372.44
2022-10-05T19:10:02.171Z,102377.35
2022-10-05T19:12:45.807Z,102376.82
2022-10-05T19:15:17.369Z,102376.48
2022-10-05T19:18:08.277Z,102374.89
2022-10-05T19:21:01.225Z,102378.40
2022-10-05T19:23:51.313Z,102385.25
2022-10-05T19:26:32.082Z,102387.86
2022-10-05T19:29:24.527Z,102385.77
2022-10-05T19:32:19.324Z,102385.75
2022-10-05T19:34:55.898Z,102384.69
2022-10-05T19:37:50.288Z,102384.52
2022-10-05T19:40:39.454Z,102389.41
2022-10-05T19:43:21.246Z,102387.48
2022-10-05T19:46:05.960Z,102385.36
2022-10-05T19:48:45.550Z,102387.29
2022-10-05T19:51:29.800Z,102385.71
2022-10-05T19:54:02.679Z,102383.95
2022-10-05T19:56:46.201Z,102379.38
2022-10-05T19:59:19.924Z,102377.62
2022-10-05T20:01:55.735Z,102386.04
2022-10-05T20:04:41.907Z,102389.70
2022-10-05T20:07:22.030Z,102390.58
2022-10-05T20:10:20.209Z,102392.33
2022-10-05T20:12:56.228Z,102389.84
2022-10-05T20:15:49.555Z,102387.91
2022-10-05T20:18:55.596Z,102381.23
2022-10-05T20:21:49.487Z,102376.30
2022-10-05T20:24:21.844Z,102376.98
2022-10-05T20:27:06.932Z,102375.58
2022-10-05T20:29:47.275Z,102372.05
2022-10-05T20:32:18.201Z,102371.16
2022-10-05T20:34:49.639Z,102372.03
2022-10-05T20:37:19.272Z,102374.46
2022-10-05T20:39:48.473Z,102372.17
2022-10-05T20:42:18.944Z,102369.88
2022-10-05T20:44:47.689Z,102372.67
2022-10-05T20:47:16.376Z,102379.16
2022-10-05T20:49:45.169Z,102378.08
2022-10-05T20:52:15.489Z,102377.51
2022-10-05T20:57:17.681Z,102374.83
2022-10-05T20:59:46.280Z,102375.52
2022-10-05T21:02:15.047Z,102378.65
2022-10-05T21:04:47.906Z,102376.15
2022-10-05T21:07:18.390Z,102375.95
2022-10-05T21:09:47.472Z,102374.19
2022-10-05T21:12:19.116Z,102373.45
2022-10-05T21:14:47.694Z,102371.16
2022-10-05T21:17:16.286Z,102372.02
2022-10-05T21:19:45.382Z,102373.02
2022-10-05T21:22:14.267Z,102368.96
2022-10-05T21:24:42.955Z,102361.05
2022-10-05T21:27:12.184Z,102362.05
2022-10-05T21:29:44.564Z,102362.56
2022-10-05T21:32:13.110Z,102362.36
2022-10-05T21:34:41.902Z,102359.88
2022-10-05T21:37:10.789Z,102358.98
2022-10-05T21:39:39.480Z,102359.14
2022-10-05T21:42:08.168Z,102356.48
2022-10-05T21:44:37.056Z,102363.11
2022-10-05T21:47:07.465Z,102363.95
2022-10-05T21:49:36.986Z,102364.57
2022-10-05T21:52:06.086Z,102361.55
2022-10-05T21:54:35.385Z,102357.13
2022-10-05T21:57:04.073Z,102353.08
2022-10-05T21:59:34.909Z,102351.65
2022-10-05T22:02:03.901Z,102347.74
2022-10-05T22:04:32.589Z,102349.07
2022-10-05T22:07:01.437Z,102345.85
2022-10-05T22:09:29.968Z,102344.94
2022-10-05T22:11:58.443Z,102346.13
2022-10-05T22:14:28.668Z,102345.73
2022-10-05T22:16:57.557Z,102342.20
2022-10-05T22:19:26.406Z,102344.23
2022-10-05T22:21:54.929Z,102343.62
2022-10-05T22:24:23.415Z,102340.17
2022-10-05T22:26:51.997Z,102336.10
2022-10-05T22:29:21.504Z,102334.48
2022-10-05T22:31:50.441Z,102333.52
2022-10-05T22:34:19.182Z,102332.59
2022-10-05T22:36:48.277Z,102330.98
2022-10-05T22:39:17.903Z,102331.96
2022-10-05T22:41:47.091Z,102328.52
2022-10-05T22:44:15.676Z,102325.48
2022-10-05T22:46:44.375Z,102320.02
2022-10-05T22:49:13.451Z,102324.70
2022-10-05T22:51:42.445Z,102328.83
2022-10-05T22:54:11.145Z,102327.94
2022-10-05T22:56:39.923Z,102328.41
2022-10-05T22:59:08.608Z,102328.34
2022-10-05T23:01:37.423Z,102328.27
2022-10-05T23:04:06.084Z,102328.52
2022-10-05T23:06:34.978Z,102328.41
2022-10-05T23:09:03.984Z,102329.92
2022-10-05T23:11:32.556Z,102330.04
2022-10-05T23:14:01.241Z,102332.99
2022-10-05T23:16:30.281Z,102331.38
2022-10-05T23:19:00.397Z,102328.73
2022-10-05T23:21:30.621Z,102327.52
2022-10-05T23:23:59.265Z,102322.45
2022-10-05T23:26:27.870Z,102318.08
2022-10-05T23:28:56.733Z,102309.70
2022-10-05T23:31:28.289Z,102306.74
2022-10-05T23:33:57.387Z,102300.10
2022-10-05T23:36:31.610Z,102295.20
2022-10-05T23:39:00.599Z,102296.24
2022-10-05T23:41:29.383Z,102300.94
2022-10-05T23:43:57.967Z,102298.99
2022-10-05T23:46:26.632Z,102304.36
2022-10-05T23:48:55.342Z,102311.69
2022-10-05T23:51:23.927Z,102318.14
2022-10-05T23:53:52.516Z,102312.91
2022-10-05T23:56:20.954Z,102310.11
2022-10-05T23:58:49.580Z,102309.73
